Time,TemperatureF,DewpointF,PressureIn,WindDirection,WindDirectionDegrees,WindSpeedMPH,WindSpeedGustMPH,Humidity,HourlyPrecipIn,Conditions,Clouds,dailyrainin,SoftwareType,DateUTC
2013-02-17 00:00:00,8.5,2.5,29.33,WNW,289,0.0,0.0,76,0.00, +RA BR, +RA,-99.99,VWS V12.06,2013-02-17 06:00:00,
2013-02-17 00:10:00,8.5,2.2,29.33,WNW,289,0.0,0.0,75,0.00, +RA BR, +RA,-99.99,VWS V12.06,2013-02-17 06:10:00,
2013-02-17 00:19:00,8.7,2.7,29.33,WNW,289,0.0,0.0,76,0.00, +RA BR, +RA,-99.99,VWS V12.06,2013-02-17 06:19:00,
2013-02-17 00:24:00,8.7,3.0,29.32,WNW,289,0.0,0.0,77,0.00, +RA BR, +RA,-99.99,VWS V12.06,2013-02-17 06:24:00,
2013-02-17 00:29:00,8.9,3.2,29.32,WNW,289,0.0,0.0,77,0.00, +RA BR, +RA,-99.99,VWS V12.06,2013-02-17 06:29:00,
2013-02-17 00:34:00,8.7,3.0,29.32,WNW,289,0.0,0.0,77,0.00, +RA BR, +RA,-99.99,VWS V12.06,2013-02-17 06:34:00,
2013-02-17 00:39:00,8.4,2.7,29.33,WNW,289,0.0,0.0,77,0.00, +RA BR, +RA,-99.99,VWS V12.06,2013-02-17 06:39:00,
2013-02-17 00:44:00,8.2,2.5,29.32,WNW,289,0.0,0.0,77,0.00, +RA BR, +RA,-99.99,VWS V12.06,2013-02-17 06:44:00,
2013-02-17 00:49:00,8.0,2.6,29.32,WNW,289,0.0,0.0,78,0.00, +RA BR, +RA,-99.99,VWS V12.06,2013-02-17 06:49:00,
2013-02-17 00:54:00,7.6,2.2,29.32,WNW,289,0.0,0.0,78,0.00, +RA BR, +RA,-99.99,VWS V12.06,2013-02-17 06:54:00,
2013-02-17 01:00:00,7.4,2.3,29.33,WNW,289,0.0,0.0,79,0.00, +RA BR, +RA,-99.99,VWS V12.06,2013-02-17 07:00:00,
2013-02-17 01:04:00,7.6,2.5,29.33,WNW,289,0.0,0.0,79,0.00, +RA BR, +RA,-99.99,VWS V12.06,2013-02-17 07:04:00,
2013-02-17 01:09:00,7.8,2.9,29.33,WNW,289,0.0,0.0,80,0.00, +RA BR, +RA,-99.99,VWS V12.06,2013-02-17 07:09:00,
2013-02-17 01:14:00,8.0,3.4,29.32,WNW,289,0.0,0.0,81,0.00, +RA BR, +RA,-99.99,VWS V12.06,2013-02-17 07:14:00,
2013-02-17 01:24:00,7.8,2.9,29.33,WNW,289,0.0,0.0,80,0.00, +RA BR, +RA,-99.99,VWS V12.06,2013-02-17 07:24:00,
2013-02-17 01:29:00,7.8,2.9,29.32,WNW,289,0.0,0.0,80,0.00, +RA BR, +RA,-99.99,VWS V12.06,2013-02-17 07:29:00,
2013-02-17 01:34:00,7.8,2.7,29.32,WNW,289,0.0,0.0,79,0.00, +RA BR, +RA,-99.99,VWS V12.06,2013-02-17 07:34:00,
2013-02-17 01:39:00,7.8,2.9,29.32,WNW,289,0.0,0.0,80,0.00, +RA BR, +RA,-99.99,VWS V12.06,2013-02-17 07:39:00,
2013-02-17 01:44:00,7.8,3.2,29.32,WNW,289,0.0,0.0,81,0.00, +RA BR, +RA,-99.99,VWS V12.06,2013-02-17 07:44:00,
2013-02-17 01:49:00,7.8,3.2,29.32,WNW,289,0.0,0.0,81,0.00, +RA BR, +RA,-99.99,VWS V12.06,2013-02-17 07:49:00,
2013-02-17 01:54:00,7.6,3.0,29.33,WNW,289,0.0,0.0,81,0.00, +RA BR, +RA,-99.99,VWS V12.06,2013-02-17 07:54:00,
2013-02-17 01:59:00,7.5,2.9,29.33,WNW,289,0.0,0.0,81,0.00, +RA BR, +RA,-99.99,VWS V12.06,2013-02-17 07:59:00,
2013-02-17 02:04:00,7.3,3.0,29.33,WNW,289,0.0,0.0,82,0.00, +RA BR, +RA,-99.99,VWS V12.06,2013-02-17 08:04:00,
2013-02-17 02:09:00,7.1,3.0,29.33,WNW,289,0.0,0.0,83,0.00, +RA BR, +RA,-99.99,VWS V12.06,2013-02-17 08:09:00,
2013-02-17 02:14:00,6.9,2.8,29.33,WNW,289,0.0,0.0,83,0.00, +RA BR, +RA,-99.99,VWS V12.06,2013-02-17 08:14:00,
2013-02-17 02:19:00,6.8,2.7,29.33,WNW,289,0.0,0.0,83,0.00, +RA BR, +RA,-99.99,VWS V12.06,2013-02-17 08:19:00,
2013-02-17 02:29:00,6.7,2.6,29.33,WNW,289,0.0,0.0,83,0.00, +RA BR, +RA,-99.99,VWS V12.06,2013-02-17 08:29:00,
2013-02-17 02:34:00,6.7,2.9,29.33,WNW,289,0.0,0.0,84,0.00, +RA BR, +RA,-99.99,VWS V12.06,2013-02-17 08:34:00,
2013-02-17 02:39:00,6.6,2.8,29.32,WNW,289,0.0,0.0,84,0.00, +RA BR, +RA,-99.99,VWS V12.06,2013-02-17 08:39:00,
2013-02-17 02:44:00,6.7,3.2,29.33,WNW,289,0.0,0.0,85,0.00, +RA BR, +RA,-99.99,VWS V12.06,2013-02-17 08:44:00,
2013-02-17 02:49:00,6.8,3.5,29.33,WNW,289,0.0,0.0,86,0.00, +RA BR, +RA,-99.99,VWS V12.06,2013-02-17 08:49:00,
2013-02-17 02:54:00,6.9,3.6,29.33,WNW,289,0.0,0.0,86,0.00, +RA BR, +RA,-99.99,VWS V12.06,2013-02-17 08:54:00,
2013-02-17 02:59:00,7.1,3.8,29.33,WNW,289,0.0,0.0,86,0.00, +RA BR, +RA,-99.99,VWS V12.06,2013-02-17 08:59:00,
2013-02-17 03:04:00,7.1,3.8,29.33,WNW,289,0.0,0.0,86,0.00, +RA BR, +RA,-99.99,VWS V12.06,2013-02-17 09:04:00,
2013-02-17 03:09:00,7.1,3.8,29.33,WNW,289,0.0,0.0,86,0.00, +RA BR, +RA,-99.99,VWS V12.06,2013-02-17 09:09:00,
2013-02-17 03:14:00,6.9,3.6,29.33,WNW,289,0.0,0.0,86,0.00, +RA BR, +RA,-99.99,VWS V12.06,2013-02-17 09:14:00,
2013-02-17 03:24:00,6.6,3.3,29.32,WNW,289,0.0,0.0,86,0.00, +RA BR, +RA,-99.99,VWS V12.06,2013-02-17 09:24:00,
2013-02-17 03:29:00,6.6,3.3,29.32,WNW,289,0.0,0.0,86,0.00, +RA BR, +RA,-99.99,VWS V12.06,2013-02-17 09:29:00,
2013-02-17 03:34:00,6.4,3.1,29.32,WNW,289,0.0,0.0,86,0.00, +RA BR, +RA,-99.99,VWS V12.06,2013-02-17 09:34:00,
2013-02-17 03:39:00,6.6,3.6,29.33,WNW,289,0.0,0.0,87,0.00, +RA BR, +RA,-99.99,VWS V12.06,2013-02-17 09:39:00,
2013-02-17 03:44:00,6.7,3.7,29.33,WNW,289,0.0,0.0,87,0.00, +RA BR, +RA,-99.99,VWS V12.06,2013-02-17 09:44:00,
2013-02-17 03:49:00,6.8,4.0,29.33,WNW,289,0.0,0.0,88,0.00, +RA BR, +RA,-99.99,VWS V12.06,2013-02-17 09:49:00,
2013-02-17 03:54:00,6.8,4.0,29.33,WNW,289,0.0,0.0,88,0.00, +RA BR, +RA,-99.99,VWS V12.06,2013-02-17 09:54:00,
2013-02-17 03:59:00,6.9,4.1,29.32,WNW,289,0.0,0.0,88,0.00, +RA BR, +RA,-99.99,VWS V12.06,2013-02-17 09:59:00,
2013-02-17 04:04:00,6.7,3.7,29.32,WNW,289,0.0,0.0,87,0.00, +RA BR, +RA,-99.99,VWS V12.06,2013-02-17 10:04:00,
2013-02-17 04:09:00,6.6,3.6,29.33,WNW,289,0.0,0.0,87,0.00, +RA BR, +RA,-99.99,VWS V12.06,2013-02-17 10:09:00,
2013-02-17 04:19:00,6.6,3.8,29.33,WNW,289,0.0,0.0,88,0.00, +RA BR, +RA,-99.99,VWS V12.06,2013-02-17 10:19:00,
2013-02-17 04:24:00,6.6,3.8,29.33,WNW,289,0.0,0.0,88,0.00, +RA BR, +RA,-99.99,VWS V12.06,2013-02-17 10:24:00,
2013-02-17 04:29:00,6.9,4.3,29.33,WNW,289,0.0,0.0,89,0.00, +RA BR, +RA,-99.99,VWS V12.06,2013-02-17 10:29:00,
2013-02-17 04:34:00,6.9,4.3,29.34,WNW,289,0.0,0.0,89,0.00, +RA BR, +RA,-99.99,VWS V12.06,2013-02-17 10:34:00,
2013-02-17 04:39:00,7.1,4.6,29.33,WNW,289,0.0,0.0,89,0.00, +RA BR, +RA,-99.99,VWS V12.06,2013-02-17 10:39:00,
2013-02-17 04:44:00,7.1,4.6,29.33,WNW,289,0.0,0.0,89,0.00, +RA BR, +RA,-99.99,VWS V12.06,2013-02-17 10:44:00,
2013-02-17 04:49:00,7.3,4.8,29.34,WNW,289,0.0,0.0,89,0.00, +RA BR, +RA,-99.99,VWS V12.06,2013-02-17 10:49:00,
2013-02-17 04:54:00,7.1,4.6,29.34,WNW,289,0.0,0.0,89,0.00, +RA BR, +RA,-99.99,VWS V12.06,2013-02-17 10:54:00,
2013-02-17 04:59:00,6.9,4.3,29.34,WNW,289,0.0,0.0,89,0.00, +RA BR, +RA,-99.99,VWS V12.06,2013-02-17 10:59:00,
2013-02-17 05:04:00,6.7,4.2,29.33,WNW,289,0.0,0.0,89,0.00, +RA BR, +RA,-99.99,VWS V12.06,2013-02-17 11:04:00,
2013-02-17 05:14:00,6.4,3.9,29.34,WNW,289,0.0,0.0,89,0.00, +RA BR, +RA,-99.99,VWS V12.06,2013-02-17 11:14:00,
2013-02-17 05:19:00,6.2,3.4,29.34,WNW,289,0.0,0.0,88,0.00, +RA BR, +RA,-99.99,VWS V12.06,2013-02-17 11:19:00,
2013-02-17 05:24:00,6.0,3.2,29.34,WNW,289,0.0,0.0,88,0.00, +RA BR, +RA,-99.99,VWS V12.06,2013-02-17 11:24:00,
2013-02-17 05:29:00,5.8,3.0,29.34,WNW,289,0.0,0.0,88,0.00, +RA BR, +RA,-99.99,VWS V12.06,2013-02-17 11:29:00,
2013-02-17 05:34:00,5.7,2.9,29.34,WNW,289,0.0,0.0,88,0.00, +RA BR, +RA,-99.99,VWS V12.06,2013-02-17 11:34:00,
2013-02-17 05:39:00,5.5,2.5,29.34,WNW,289,0.0,0.0,87,0.00, +RA BR, +RA,-99.99,VWS V12.06,2013-02-17 11:39:00,
2013-02-17 05:44:00,5.3,2.5,29.34,WNW,289,0.0,0.0,88,0.00, +RA BR, +RA,-99.99,VWS V12.06,2013-02-17 11:44:00,
2013-02-17 05:49:00,5.1,2.3,29.34,WNW,289,0.0,0.0,88,0.00, +RA BR, +RA,-99.99,VWS V12.06,2013-02-17 11:49:00,
2013-02-17 05:54:00,5.1,2.3,29.34,WNW,289,0.0,0.0,88,0.00, +RA BR, +RA,-99.99,VWS V12.06,2013-02-17 11:54:00,
2013-02-17 05:59:00,5.3,2.8,29.34,WNW,289,0.0,0.0,89,0.00, +RA BR, +RA,-99.99,VWS V12.06,2013-02-17 11:59:00,
2013-02-17 06:04:00,5.5,3.0,29.34,WNW,289,0.0,0.0,89,0.00, +RA BR, +RA,-99.99,VWS V12.06,2013-02-17 12:04:00,
2013-02-17 06:14:00,5.5,3.0,29.34,WNW,289,0.0,0.0,89,0.00, +RA BR, +RA,-99.99,VWS V12.06,2013-02-17 12:14:00,
2013-02-17 06:19:00,5.3,2.8,29.35,WNW,289,0.0,0.0,89,0.00, +RA BR, +RA,-99.99,VWS V12.06,2013-02-17 12:19:00,
2013-02-17 06:29:00,5.1,2.8,29.34,WNW,289,0.0,0.0,90,0.00, +RA BR, +RA,-99.99,VWS V12.06,2013-02-17 12:29:00,
2013-02-17 06:34:00,4.9,2.6,29.34,WNW,289,0.0,0.0,90,0.00, +RA BR, +RA,-99.99,VWS V12.06,2013-02-17 12:34:00,
2013-02-17 06:39:00,4.9,2.6,29.34,WNW,289,0.0,0.0,90,0.00, +RA BR, +RA,-99.99,VWS V12.06,2013-02-17 12:39:00,
2013-02-17 06:44:00,4.9,2.6,29.34,WNW,289,0.0,0.0,90,0.00, +RA BR, +RA,-99.99,VWS V12.06,2013-02-17 12:44:00,
2013-02-17 06:49:00,4.9,2.6,29.35,WNW,289,0.0,0.0,90,0.00, +RA BR, +RA,-99.99,VWS V12.06,2013-02-17 12:49:00,
2013-02-17 06:54:00,5.1,2.8,29.35,WNW,289,0.0,0.0,90,0.00, +RA BR, +RA,-99.99,VWS V12.06,2013-02-17 12:54:00,
2013-02-17 06:59:00,5.3,3.2,29.35,WNW,289,0.0,0.0,91,0.00, +RA BR, +RA,-99.99,VWS V12.06,2013-02-17 12:59:00,
2013-02-17 07:04:00,5.5,3.7,29.35,WNW,289,0.0,0.0,92,0.00, +RA BR, +RA,-99.99,VWS V12.06,2013-02-17 13:04:00,
2013-02-17 07:14:00,6.0,4.2,29.35,WNW,289,0.0,0.0,92,0.00, +RA BR, +RA,-99.99,VWS V12.06,2013-02-17 13:14:00,
2013-02-17 07:19:00,6.4,4.6,29.35,WNW,289,0.0,0.0,92,0.00, +RA BR, +RA,-99.99,VWS V12.06,2013-02-17 13:19:00,
2013-02-17 07:24:00,6.6,4.8,29.35,WNW,289,0.0,0.0,92,0.00, +RA BR, +RA,-99.99,VWS V12.06,2013-02-17 13:24:00,
2013-02-17 07:29:00,6.9,5.3,29.35,WNW,289,0.0,0.0,93,0.00, +RA BR, +RA,-99.99,VWS V12.06,2013-02-17 13:29:00,
2013-02-17 07:34:00,7.3,5.9,29.35,WNW,289,0.0,0.0,94,0.00, +RA BR, +RA,-99.99,VWS V12.06,2013-02-17 13:34:00,
2013-02-17 07:39:00,7.6,6.0,29.34,WNW,289,0.0,0.0,93,0.00, +RA BR, +RA,-99.99,VWS V12.06,2013-02-17 13:39:00,
2013-02-17 07:44:00,8.2,6.8,29.35,WNW,289,0.0,1.0,94,0.00, +RA BR, +RA,-99.99,VWS V12.06,2013-02-17 13:44:00,
2013-02-17 07:49:00,8.7,7.3,29.35,WNW,289,0.0,3.0,94,0.00, +RA BR, +RA,-99.99,VWS V12.06,2013-02-17 13:49:00,
2013-02-17 07:54:00,9.4,8.3,29.34,WNW,289,0.0,3.0,95,0.00, +RA BR, +RA,-99.99,VWS V12.06,2013-02-17 13:54:00,
2013-02-17 07:59:00,10.1,8.7,29.34,WNW,289,0.0,3.0,94,0.00, +RA BR, +RA,-99.99,VWS V12.06,2013-02-17 13:59:00,
2013-02-17 08:09:00,11.5,10.1,29.34,WNW,289,1.0,3.0,94,0.00, +RA BR, +RA,-99.99,VWS V12.06,2013-02-17 14:09:00,
2013-02-17 08:14:00,12.0,9.9,29.34,WNW,289,0.0,5.0,91,0.00, +RA BR, +RA,-99.99,VWS V12.06,2013-02-17 14:14:00,
2013-02-17 08:19:00,12.7,10.1,29.34,WNW,289,2.0,5.0,89,0.00, +RA BR, +RA,-99.99,VWS V12.06,2013-02-17 14:19:00,
2013-02-17 08:24:00,13.0,9.4,29.34,WNW,289,1.0,5.0,85,0.00, +RA BR, +RA,-99.99,VWS V12.06,2013-02-17 14:24:00,
2013-02-17 08:29:00,13.5,9.3,29.34,WNW,289,0.0,5.0,83,0.00, +RA BR, +RA,-99.99,VWS V12.06,2013-02-17 14:29:00,
2013-02-17 08:34:00,14.2,9.4,29.34,WNW,289,2.0,4.0,81,0.00, +RA BR, +RA,-99.99,VWS V12.06,2013-02-17 14:34:00,
2013-02-17 08:39:00,14.6,8.1,29.34,WNW,289,0.0,5.0,75,0.00, +RA BR, +RA,-99.99,VWS V12.06,2013-02-17 14:39:00,
2013-02-17 08:44:00,15.1,7.7,29.34,WNW,289,0.0,5.0,72,0.00, +RA BR, +RA,-99.99,VWS V12.06,2013-02-17 14:44:00,
2013-02-17 08:49:00,15.4,6.4,29.34,WNW,289,0.0,5.0,67,0.00, +RA BR, +RA,-99.99,VWS V12.06,2013-02-17 14:49:00,
2013-02-17 08:54:00,15.8,6.5,29.34,WNW,289,2.0,5.0,66,0.00, +RA BR, +RA,-99.99,VWS V12.06,2013-02-17 14:54:00,
2013-02-17 08:59:00,16.1,6.1,29.34,WNW,289,2.0,5.0,64,0.00, +RA BR, +RA,-99.99,VWS V12.06,2013-02-17 14:59:00,
2013-02-17 09:09:00,16.7,5.6,29.34,WNW,289,1.0,6.0,61,0.00, +RA BR, +RA,-99.99,VWS V12.06,2013-02-17 15:09:00,
2013-02-17 09:14:00,16.9,5.8,29.34,WNW,289,0.0,7.0,61,0.00, +RA BR, +RA,-99.99,VWS V12.06,2013-02-17 15:14:00,
2013-02-17 09:19:00,17.1,6.0,29.34,WNW,289,2.0,7.0,61,0.00, +RA BR, +RA,-99.99,VWS V12.06,2013-02-17 15:19:00,
2013-02-17 09:24:00,17.2,5.7,29.34,WNW,289,4.0,7.0,60,0.00, +RA BR, +RA,-99.99,VWS V12.06,2013-02-17 15:24:00,
2013-02-17 09:29:00,17.2,5.3,29.34,WNW,289,3.0,7.0,59,0.00, +RA BR, +RA,-99.99,VWS V12.06,2013-02-17 15:29:00,
2013-02-17 09:34:00,17.7,6.2,29.34,WNW,289,3.0,5.0,60,0.00, +RA BR, +RA,-99.99,VWS V12.06,2013-02-17 15:34:00,
2013-02-17 09:39:00,17.8,6.3,29.33,WNW,289,2.0,5.0,60,0.00, +RA BR, +RA,-99.99,VWS V12.06,2013-02-17 15:39:00,
2013-02-17 09:44:00,18.3,7.1,29.33,WNW,289,3.0,5.0,61,0.00, +RA BR, +RA,-99.99,VWS V12.06,2013-02-17 15:44:00,
2013-02-17 09:49:00,18.5,6.9,29.33,WNW,289,3.0,5.0,60,0.00, +RA BR, +RA,-99.99,VWS V12.06,2013-02-17 15:49:00,
2013-02-17 09:54:00,18.6,6.7,29.33,WNW,289,2.0,6.0,59,0.00, +RA BR, +RA,-99.99,VWS V12.06,2013-02-17 15:54:00,
2013-02-17 09:59:00,18.6,7.0,29.33,WNW,289,4.0,6.0,60,0.00, +RA BR, +RA,-99.99,VWS V12.06,2013-02-17 15:59:00,
2013-02-17 10:09:00,19.4,7.8,29.33,WNW,289,6.0,7.0,60,0.00, +RA BR, +RA,-99.99,VWS V12.06,2013-02-17 16:09:00,
2013-02-17 10:14:00,19.4,7.1,29.33,WNW,286,0.0,7.0,58,0.00, +RA BR, +RA,-99.99,VWS V12.06,2013-02-17 16:14:00,
2013-02-17 10:19:00,19.6,6.8,29.33,WNW,286,2.0,7.0,57,0.00, +RA BR, +RA,-99.99,VWS V12.06,2013-02-17 16:19:00,
2013-02-17 10:24:00,20.0,8.0,29.34,WNW,286,1.0,7.0,59,0.00, +RA BR, +RA,-99.99,VWS V12.06,2013-02-17 16:24:00,
2013-02-17 10:29:00,20.5,8.1,29.34,West,281,2.0,7.0,58,0.00, +RA BR, +RA,-99.99,VWS V12.06,2013-02-17 16:29:00,
2013-02-17 10:34:00,20.6,7.8,29.34,West,281,2.0,7.0,57,0.00, +RA BR, +RA,-99.99,VWS V12.06,2013-02-17 16:34:00,
2013-02-17 10:39:00,20.9,7.7,29.34,West,281,3.0,7.0,56,0.00, +RA BR, +RA,-99.99,VWS V12.06,2013-02-17 16:39:00,
2013-02-17 10:44:00,20.9,8.1,29.34,West,276,4.0,7.0,57,0.00, +RA BR, +RA,-99.99,VWS V12.06,2013-02-17 16:44:00,
2013-02-17 10:49:00,20.9,7.3,29.34,West,276,3.0,7.0,55,0.00, +RA BR, +RA,-99.99,VWS V12.06,2013-02-17 16:49:00,
2013-02-17 10:54:00,21.1,8.3,29.34,West,276,4.0,7.0,57,0.00, +RA BR, +RA,-99.99,VWS V12.06,2013-02-17 16:54:00,
2013-02-17 10:59:00,21.2,8.4,29.34,West,276,2.0,7.0,57,0.00, +RA BR, +RA,-99.99,VWS V12.06,2013-02-17 16:59:00,
2013-02-17 11:04:00,21.4,8.9,29.33,West,276,3.0,7.0,58,0.00, +RA BR, +RA,-99.99,VWS V12.06,2013-02-17 17:04:00,
2013-02-17 11:09:00,21.5,8.6,29.33,West,274,4.0,8.0,57,0.00, +RA BR, +RA,-99.99,VWS V12.06,2013-02-17 17:09:00,
2013-02-17 11:14:00,21.7,8.0,29.33,West,274,4.0,8.0,55,0.00, +RA BR, +RA,-99.99,VWS V12.06,2013-02-17 17:14:00,
2013-02-17 11:19:00,21.8,7.7,29.33,West,274,5.0,8.0,54,0.00, +RA BR, +RA,-99.99,VWS V12.06,2013-02-17 17:19:00,
2013-02-17 11:24:00,22.1,8.4,29.33,West,274,3.0,8.0,55,0.00, +RA BR, +RA,-99.99,VWS V12.06,2013-02-17 17:24:00,
2013-02-17 11:29:00,22.3,8.2,29.33,West,272,3.0,8.0,54,0.00, +RA BR, +RA,-99.99,VWS V12.06,2013-02-17 17:29:00,
2013-02-17 11:34:00,22.6,9.3,29.33,West,272,3.0,6.0,56,0.00, +RA BR, +RA,-99.99,VWS V12.06,2013-02-17 17:34:00,
2013-02-17 11:39:00,22.7,9.0,29.33,West,272,2.0,7.0,55,0.00, +RA BR, +RA,-99.99,VWS V12.06,2013-02-17 17:39:00,
2013-02-17 11:44:00,22.9,8.3,29.33,West,269,4.0,8.0,53,0.00, +RA BR, +RA,-99.99,VWS V12.06,2013-02-17 17:44:00,
2013-02-17 11:49:00,22.7,8.1,29.33,West,268,3.0,9.0,53,0.00, +RA BR, +RA,-99.99,VWS V12.06,2013-02-17 17:49:00,
2013-02-17 11:54:00,23.3,9.5,29.33,West,267,2.0,9.0,55,0.00, +RA BR, +RA,-99.99,VWS V12.06,2013-02-17 17:54:00,
2013-02-17 11:59:00,23.6,10.2,29.33,West,267,2.0,9.0,56,0.00, +RA BR, +RA,-99.99,VWS V12.06,2013-02-17 17:59:00,
2013-02-17 12:09:00,23.9,9.3,29.32,West,267,2.0,7.0,53,0.00, +RA BR, +RA,-99.99,VWS V12.06,2013-02-17 18:09:00,
2013-02-17 12:14:00,24.2,10.0,29.32,West,267,2.0,7.0,54,0.00, +RA BR, +RA,-99.99,VWS V12.06,2013-02-17 18:14:00,
2013-02-17 12:19:00,24.4,9.3,29.32,West,267,1.0,7.0,52,0.00, +RA BR, +RA,-99.99,VWS V12.06,2013-02-17 18:19:00,
2013-02-17 12:24:00,24.5,10.2,29.31,West,267,5.0,8.0,54,0.00, +RA BR, +RA,-99.99,VWS V12.06,2013-02-17 18:24:00,
2013-02-17 12:29:00,24.6,10.3,29.31,West,267,3.0,8.0,54,0.00, +RA BR, +RA,-99.99,VWS V12.06,2013-02-17 18:29:00,
2013-02-17 12:34:00,24.9,11.4,29.30,West,266,2.0,8.0,56,0.00, +RA BR, +RA,-99.99,VWS V12.06,2013-02-17 18:34:00,
2013-02-17 12:39:00,25.1,11.2,29.30,WSW,256,2.0,10.0,55,0.00, +RA BR, +RA,-99.99,VWS V12.06,2013-02-17 18:39:00,
2013-02-17 12:44:00,25.4,12.3,29.30,WSW,256,4.0,10.0,57,0.00, +RA BR, +RA,-99.99,VWS V12.06,2013-02-17 18:44:00,
2013-02-17 12:54:00,25.9,12.0,29.30,WSW,256,3.0,10.0,55,0.00, +RA BR, +RA,-99.99,VWS V12.06,2013-02-17 18:54:00,
2013-02-17 12:59:00,26.0,12.1,29.30,WSW,256,2.0,10.0,55,0.00, +RA BR, +RA,-99.99,VWS V12.06,2013-02-17 18:59:00,
2013-02-17 13:04:00,25.8,11.5,29.30,WSW,237,4.0,12.0,54,0.00, +RA BR, +RA,-99.99,VWS V12.06,2013-02-17 19:04:00,
2013-02-17 13:09:00,25.9,11.6,29.29,WSW,237,3.0,12.0,54,0.00, +RA BR, +RA,-99.99,VWS V12.06,2013-02-17 19:09:00,
2013-02-17 13:14:00,26.0,12.1,29.29,WSW,237,3.0,12.0,55,0.00, +RA BR, +RA,-99.99,VWS V12.06,2013-02-17 19:14:00,
2013-02-17 13:19:00,26.3,13.6,29.28,SW,236,3.0,12.0,58,0.00, +RA BR, +RA,-99.99,VWS V12.06,2013-02-17 19:19:00,
2013-02-17 13:24:00,26.3,11.9,29.28,SW,236,4.0,12.0,54,0.00, +RA BR, +RA,-99.99,VWS V12.06,2013-02-17 19:24:00,
2013-02-17 13:29:00,26.4,13.2,29.28,SW,235,3.0,12.0,57,0.00, +RA BR, +RA,-99.99,VWS V12.06,2013-02-17 19:29:00,
2013-02-17 13:39:00,27.2,13.6,29.27,SW,235,5.0,8.0,56,0.00, +RA BR, +RA,-99.99,VWS V12.06,2013-02-17 19:39:00,
2013-02-17 13:44:00,27.2,12.8,29.27,SW,235,3.0,8.0,54,0.00, +RA BR, +RA,-99.99,VWS V12.06,2013-02-17 19:44:00,
2013-02-17 13:54:00,27.2,13.2,29.27,SW,234,3.0,9.0,55,0.00, +RA BR, +RA,-99.99,VWS V12.06,2013-02-17 19:54:00,
2013-02-17 13:59:00,27.3,13.3,29.26,SW,234,5.0,9.0,55,0.00, +RA BR, +RA,-99.99,VWS V12.06,2013-02-17 19:59:00,
2013-02-17 14:09:00,27.5,14.7,29.25,SW,233,5.0,9.0,58,0.00, +RA BR, +RA,-99.99,VWS V12.06,2013-02-17 20:09:00,
2013-02-17 14:14:00,27.6,15.2,29.25,SW,233,6.0,9.0,59,0.00, +RA BR, +RA,-99.99,VWS V12.06,2013-02-17 20:14:00,
2013-02-17 14:19:00,27.9,14.6,29.25,SW,232,6.0,9.0,57,0.00, +RA BR, +RA,-99.99,VWS V12.06,2013-02-17 20:19:00,
2013-02-17 14:24:00,27.9,15.1,29.25,SW,232,2.0,9.0,58,0.00, +RA BR, +RA,-99.99,VWS V12.06,2013-02-17 20:24:00,
2013-02-17 14:29:00,28.2,14.9,29.25,SW,232,4.0,5.0,57,0.00, +RA BR, +RA,-99.99,VWS V12.06,2013-02-17 20:29:00,
2013-02-17 14:34:00,28.4,15.9,29.25,SW,226,4.0,10.0,59,0.00, +RA BR, +RA,-99.99,VWS V12.06,2013-02-17 20:34:00,
2013-02-17 14:44:00,28.4,15.9,29.25,SW,220,6.0,11.0,59,0.00, +RA BR, +RA,-99.99,VWS V12.06,2013-02-17 20:44:00,
2013-02-17 14:49:00,28.1,15.6,29.24,SW,220,8.0,11.0,59,0.00, +RA BR, +RA,-99.99,VWS V12.06,2013-02-17 20:49:00,
2013-02-17 14:54:00,27.9,16.2,29.24,SW,220,4.0,11.0,61,0.00, +RA BR, +RA,-99.99,VWS V12.06,2013-02-17 20:54:00,
2013-02-17 14:59:00,28.1,16.0,29.24,SW,220,4.0,11.0,60,0.00, +RA BR, +RA,-99.99,VWS V12.06,2013-02-17 20:59:00,
2013-02-17 15:04:00,28.4,16.7,29.24,SW,220,9.0,9.0,61,0.00, +RA BR, +RA,-99.99,VWS V12.06,2013-02-17 21:04:00,
2013-02-17 15:09:00,28.2,16.1,29.24,SW,220,7.0,9.0,60,0.00, +RA BR, +RA,-99.99,VWS V12.06,2013-02-17 21:09:00,
2013-02-17 15:14:00,28.2,16.5,29.23,SW,220,4.0,9.0,61,0.00, +RA BR, +RA,-99.99,VWS V12.06,2013-02-17 21:14:00,
2013-02-17 15:19:00,28.2,16.5,29.23,SW,220,6.0,9.0,61,0.00, +RA BR, +RA,-99.99,VWS V12.06,2013-02-17 21:19:00,
2013-02-17 15:24:00,28.2,17.2,29.23,SW,220,4.0,9.0,63,0.00, +RA BR, +RA,-99.99,VWS V12.06,2013-02-17 21:24:00,
2013-02-17 15:29:00,28.4,17.1,29.23,SW,220,4.0,9.0,62,0.00, +RA BR, +RA,-99.99,VWS V12.06,2013-02-17 21:29:00,
2013-02-17 15:34:00,28.5,16.8,29.22,SW,220,2.0,8.0,61,0.00, +RA BR, +RA,-99.99,VWS V12.06,2013-02-17 21:34:00,
2013-02-17 15:39:00,28.8,17.1,29.22,SW,220,9.0,9.0,61,0.00, +RA BR, +RA,-99.99,VWS V12.06,2013-02-17 21:39:00,
2013-02-17 15:44:00,28.8,17.4,29.22,SW,220,5.0,9.0,62,0.00, +RA BR, +RA,-99.99,VWS V12.06,2013-02-17 21:44:00,
2013-02-17 15:49:00,29.0,17.6,29.22,SW,220,6.0,9.0,62,0.00, +RA BR, +RA,-99.99,VWS V12.06,2013-02-17 21:49:00,
2013-02-17 15:54:00,28.8,17.8,29.22,SW,220,7.0,9.0,63,0.00, +RA BR, +RA,-99.99,VWS V12.06,2013-02-17 21:54:00,
2013-02-17 15:59:00,28.7,17.3,29.22,SW,220,4.0,9.0,62,0.00, +RA BR, +RA,-99.99,VWS V12.06,2013-02-17 21:59:00,
2013-02-17 16:09:00,28.7,18.1,29.22,SW,220,5.0,9.0,64,0.00, +RA BR, +RA,-99.99,VWS V12.06,2013-02-17 22:09:00,
2013-02-17 16:14:00,28.7,18.1,29.21,SW,220,2.0,9.0,64,0.00, +RA BR, +RA,-99.99,VWS V12.06,2013-02-17 22:14:00,
2013-02-17 16:19:00,28.5,17.9,29.22,SW,220,3.0,9.0,64,0.00, +RA BR, +RA,-99.99,VWS V12.06,2013-02-17 22:19:00,
2013-02-17 16:24:00,28.4,17.8,29.22,SW,220,3.0,9.0,64,0.00, +RA BR, +RA,-99.99,VWS V12.06,2013-02-17 22:24:00,
2013-02-17 16:29:00,28.4,17.8,29.22,SW,220,5.0,9.0,64,0.00, +RA BR, +RA,-99.99,VWS V12.06,2013-02-17 22:29:00,
2013-02-17 16:34:00,28.2,17.6,29.22,SW,220,2.0,9.0,64,0.00, +RA BR, +RA,-99.99,VWS V12.06,2013-02-17 22:34:00,
2013-02-17 16:39:00,28.2,18.3,29.22,SW,220,2.0,9.0,66,0.00, +RA BR, +RA,-99.99,VWS V12.06,2013-02-17 22:39:00,
2013-02-17 16:44:00,28.2,18.3,29.21,SW,220,4.0,9.0,66,0.00, +RA BR, +RA,-99.99,VWS V12.06,2013-02-17 22:44:00,
2013-02-17 16:49:00,28.2,18.3,29.21,SW,220,6.0,9.0,66,0.00, +RA BR, +RA,-99.99,VWS V12.06,2013-02-17 22:49:00,
2013-02-17 16:54:00,28.1,18.2,29.21,SW,220,2.0,9.0,66,0.00, +RA BR, +RA,-99.99,VWS V12.06,2013-02-17 22:54:00,
2013-02-17 16:59:00,28.1,18.2,29.21,SW,220,3.0,9.0,66,0.00, +RA BR, +RA,-99.99,VWS V12.06,2013-02-17 22:59:00,
2013-02-17 17:04:00,28.1,18.2,29.21,SW,220,5.0,8.0,66,0.00, +RA BR, +RA,-99.99,VWS V12.06,2013-02-17 23:04:00,
2013-02-17 17:09:00,28.1,18.2,29.21,SW,220,4.0,8.0,66,0.00, +RA BR, +RA,-99.99,VWS V12.06,2013-02-17 23:09:00,
2013-02-17 17:14:00,28.1,18.9,29.20,SW,220,4.0,8.0,68,0.00, +RA BR, +RA,-99.99,VWS V12.06,2013-02-17 23:14:00,
2013-02-17 17:19:00,28.1,18.9,29.20,SW,220,5.0,8.0,68,0.00, +RA BR, +RA,-99.99,VWS V12.06,2013-02-17 23:19:00,
2013-02-17 17:24:00,27.9,18.7,29.20,SW,220,4.0,8.0,68,0.00, +RA BR, +RA,-99.99,VWS V12.06,2013-02-17 23:24:00,
2013-02-17 17:34:00,27.8,19.0,29.19,SW,220,3.0,7.0,69,0.00, +RA BR, +RA,-99.99,VWS V12.06,2013-02-17 23:34:00,
2013-02-17 17:39:00,27.6,18.8,29.19,SW,220,4.0,7.0,69,0.00, +RA BR, +RA,-99.99,VWS V12.06,2013-02-17 23:39:00,
2013-02-17 17:44:00,27.6,19.1,29.19,SW,220,3.0,8.0,70,0.00, +RA BR, +RA,-99.99,VWS V12.06,2013-02-17 23:44:00,
2013-02-17 17:49:00,27.5,19.0,29.19,SW,220,3.0,8.0,70,0.00, +RA BR, +RA,-99.99,VWS V12.06,2013-02-17 23:49:00,
2013-02-17 17:54:00,27.5,19.4,29.19,SW,220,5.0,8.0,71,0.00, +RA BR, +RA,-99.99,VWS V12.06,2013-02-17 23:54:00,
2013-02-17 17:59:00,27.5,19.4,29.19,SW,220,4.0,8.0,71,0.00, +RA BR, +RA,-99.99,VWS V12.06,2013-02-17 23:59:00,
2013-02-17 18:04:00,27.3,19.5,29.19,SW,220,4.0,7.0,72,0.00, +RA BR, +RA,-99.99,VWS V12.06,2013-02-18 00:04:00,
2013-02-17 18:09:00,27.3,19.1,29.19,SW,220,4.0,7.0,71,0.00, +RA BR, +RA,-99.99,VWS V12.06,2013-02-18 00:09:00,
2013-02-17 18:14:00,27.4,19.6,29.19,SW,220,3.0,7.0,72,0.00, +RA BR, +RA,-99.99,VWS V12.06,2013-02-18 00:14:00,
2013-02-17 18:19:00,27.3,19.1,29.19,SW,220,4.0,8.0,71,0.00, +RA BR, +RA,-99.99,VWS V12.06,2013-02-18 00:19:00,
2013-02-17 18:24:00,27.5,19.4,29.19,SW,220,3.0,9.0,71,0.00, +RA BR, +RA,-99.99,VWS V12.06,2013-02-18 00:24:00,
2013-02-17 18:29:00,27.5,19.7,29.18,SW,220,6.0,9.0,72,0.00, +RA BR, +RA,-99.99,VWS V12.06,2013-02-18 00:29:00,
2013-02-17 18:34:00,27.5,19.7,29.19,SW,220,5.0,6.0,72,0.00, +RA BR, +RA,-99.99,VWS V12.06,2013-02-18 00:34:00,
2013-02-17 18:44:00,27.5,19.7,29.18,SW,220,4.0,9.0,72,0.00, +RA BR, +RA,-99.99,VWS V12.06,2013-02-18 00:44:00,
2013-02-17 18:49:00,27.3,19.5,29.18,SW,220,5.0,9.0,72,0.00, +RA BR, +RA,-99.99,VWS V12.06,2013-02-18 00:49:00,
2013-02-17 18:54:00,27.3,19.5,29.18,SW,219,5.0,10.0,72,0.00, +RA BR, +RA,-99.99,VWS V12.06,2013-02-18 00:54:00,
2013-02-17 18:59:00,27.2,19.7,29.17,SW,219,5.0,10.0,73,0.00, +RA BR, +RA,-99.99,VWS V12.06,2013-02-18 00:59:00,
2013-02-17 19:04:00,27.2,19.7,29.17,SW,219,5.0,7.0,73,0.00, +RA BR, +RA,-99.99,VWS V12.06,2013-02-18 01:04:00,
2013-02-17 19:09:00,27.0,19.5,29.16,SW,219,6.0,8.0,73,0.00, +RA BR, +RA,-99.99,VWS V12.06,2013-02-18 01:09:00,
2013-02-17 19:14:00,27.0,19.5,29.16,SW,219,7.0,8.0,73,0.00, +RA BR, +RA,-99.99,VWS V12.06,2013-02-18 01:14:00,
2013-02-17 19:19:00,27.0,19.8,29.16,SW,219,4.0,8.0,74,0.00, +RA BR, +RA,-99.99,VWS V12.06,2013-02-18 01:19:00,
2013-02-17 19:24:00,27.0,19.8,29.16,SW,219,7.0,8.0,74,0.00, +RA BR, +RA,-99.99,VWS V12.06,2013-02-18 01:24:00,
2013-02-17 19:29:00,27.0,20.1,29.16,SW,219,7.0,9.0,75,0.00, +RA BR, +RA,-99.99,VWS V12.06,2013-02-18 01:29:00,
2013-02-17 19:34:00,27.0,20.1,29.15,SW,218,7.0,9.0,75,0.00, +RA BR, +RA,-99.99,VWS V12.06,2013-02-18 01:34:00,
2013-02-17 19:39:00,27.0,20.1,29.16,SW,218,6.0,9.0,75,0.00, +RA BR, +RA,-99.99,VWS V12.06,2013-02-18 01:39:00,
2013-02-17 19:44:00,26.9,20.0,29.16,SW,216,7.0,9.0,75,0.00, +RA BR, +RA,-99.99,VWS V12.06,2013-02-18 01:44:00,
2013-02-17 19:49:00,26.9,20.0,29.15,SW,216,6.0,9.0,75,0.00, +RA BR, +RA,-99.99,VWS V12.06,2013-02-18 01:49:00,
2013-02-17 19:54:00,26.9,20.4,29.16,SW,216,7.0,9.0,76,0.00, +RA BR, +RA,-99.99,VWS V12.06,2013-02-18 01:54:00,
2013-02-17 19:59:00,26.9,20.4,29.15,SW,216,5.0,9.0,76,0.00, +RA BR, +RA,-99.99,VWS V12.06,2013-02-18 01:59:00,
2013-02-17 20:09:00,26.9,20.4,29.16,SW,215,6.0,8.0,76,0.00, +RA BR, +RA,-99.99,VWS V12.06,2013-02-18 02:09:00,
2013-02-17 20:14:00,27.0,20.5,29.15,SW,215,4.0,8.0,76,0.00, +RA BR, +RA,-99.99,VWS V12.06,2013-02-18 02:14:00,
2013-02-17 20:19:00,27.0,20.5,29.15,SW,215,3.0,10.0,76,0.00, +RA BR, +RA,-99.99,VWS V12.06,2013-02-18 02:19:00,
2013-02-17 20:25:00,27.0,20.8,29.15,SW,215,5.0,10.0,77,0.00, +RA BR, +RA,-99.99,VWS V12.06,2013-02-18 02:25:00,
2013-02-17 20:30:00,27.0,20.8,29.15,SW,215,5.0,10.0,77,0.00, +RA BR, +RA,-99.99,VWS V12.06,2013-02-18 02:30:00,
2013-02-17 20:35:00,27.0,20.8,29.15,SW,215,6.0,10.0,77,0.00, +RA BR, +RA,-99.99,VWS V12.06,2013-02-18 02:35:00,
2013-02-17 20:40:00,27.0,20.8,29.15,SW,215,7.0,10.0,77,0.00, +RA BR, +RA,-99.99,VWS V12.06,2013-02-18 02:40:00,
2013-02-17 20:45:00,27.0,21.1,29.16,SW,215,7.0,10.0,78,0.00, +RA BR, +RA,-99.99,VWS V12.06,2013-02-18 02:45:00,
2013-02-17 20:50:00,27.2,21.6,29.16,SW,215,4.0,10.0,79,0.00, +RA BR, +RA,-99.99,VWS V12.06,2013-02-18 02:50:00,
2013-02-17 20:55:00,27.2,21.6,29.15,SW,215,7.0,10.0,79,0.00, +RA BR, +RA,-99.99,VWS V12.06,2013-02-18 02:55:00,
2013-02-17 21:00:00,27.2,21.9,29.15,SW,215,4.0,10.0,80,0.00, +RA BR, +RA,-99.99,VWS V12.06,2013-02-18 03:00:00,
2013-02-17 21:10:00,27.2,21.9,29.15,SW,214,6.0,10.0,80,0.00, +RA BR, +RA,-99.99,VWS V12.06,2013-02-18 03:10:00,
2013-02-17 21:15:00,27.2,21.9,29.15,SW,214,6.0,10.0,80,0.00, +RA BR, +RA,-99.99,VWS V12.06,2013-02-18 03:15:00,
2013-02-17 21:25:00,27.2,21.9,29.15,SSW,211,5.0,10.0,80,0.00, +RA BR, +RA,-99.99,VWS V12.06,2013-02-18 03:25:00,
2013-02-17 21:30:00,27.2,21.9,29.14,SSW,210,7.0,10.0,80,0.00, +RA BR, +RA,-99.99,VWS V12.06,2013-02-18 03:30:00,
2013-02-17 21:35:00,27.2,21.9,29.14,SSW,210,7.0,8.0,80,0.00, +RA BR, +RA,-99.99,VWS V12.06,2013-02-18 03:35:00,
2013-02-17 21:40:00,27.0,22.0,29.14,SSW,210,7.0,8.0,81,0.00, +RA BR, +RA,-99.99,VWS V12.06,2013-02-18 03:40:00,
2013-02-17 21:45:00,27.0,22.2,29.14,SSW,210,6.0,10.0,82,0.00, +RA BR, +RA,-99.99,VWS V12.06,2013-02-18 03:45:00,
2013-02-17 21:50:00,27.2,22.4,29.14,SSW,210,5.0,10.0,82,0.00, +RA BR, +RA,-99.99,VWS V12.06,2013-02-18 03:50:00,
2013-02-17 21:55:00,27.2,22.4,29.13,SSW,210,4.0,10.0,82,0.00, +RA BR, +RA,-99.99,VWS V12.06,2013-02-18 03:55:00,
2013-02-17 22:00:00,27.2,22.7,29.13,SSW,208,3.0,12.0,83,0.00, +RA BR, +RA,-99.99,VWS V12.06,2013-02-18 04:00:00,
2013-02-17 22:05:00,27.3,22.8,29.12,SSW,207,5.0,10.0,83,0.00, +RA BR, +RA,-99.99,VWS V12.06,2013-02-18 04:05:00,
2013-02-17 22:10:00,27.3,22.8,29.12,SSW,207,7.0,10.0,83,0.00, +RA BR, +RA,-99.99,VWS V12.06,2013-02-18 04:10:00,
2013-02-17 22:15:00,27.3,22.8,29.12,SSW,205,9.0,12.0,83,0.00, +RA BR, +RA,-99.99,VWS V12.06,2013-02-18 04:15:00,
2013-02-17 22:20:00,27.3,22.8,29.12,SSW,203,9.0,12.0,83,0.00, +RA BR, +RA,-99.99,VWS V12.06,2013-02-18 04:20:00,
2013-02-17 22:25:00,27.3,23.1,29.12,SSW,202,6.0,12.0,84,0.00, +RA BR, +RA,-99.99,VWS V12.06,2013-02-18 04:25:00,
2013-02-17 22:30:00,27.3,23.4,29.11,SSW,202,8.0,12.0,85,0.00, +RA BR, +RA,-99.99,VWS V12.06,2013-02-18 04:30:00,
2013-02-17 22:35:00,27.3,23.1,29.12,SSW,202,6.0,10.0,84,0.00, +RA BR, +RA,-99.99,VWS V12.06,2013-02-18 04:35:00,
2013-02-17 22:40:00,27.3,23.4,29.11,SSW,202,7.0,10.0,85,0.00, +RA BR, +RA,-99.99,VWS V12.06,2013-02-18 04:40:00,
2013-02-17 22:45:00,27.3,23.4,29.12,SSW,202,8.0,10.0,85,0.00, +RA BR, +RA,-99.99,VWS V12.06,2013-02-18 04:45:00,
2013-02-17 22:50:00,27.3,23.4,29.10,SSW,202,6.0,10.0,85,0.00, +RA BR, +RA,-99.99,VWS V12.06,2013-02-18 04:50:00,
2013-02-17 23:00:00,27.4,23.8,29.10,SSW,202,7.0,10.0,86,0.00, +RA BR, +RA,-99.99,VWS V12.06,2013-02-18 05:00:00,
2013-02-17 23:05:00,27.3,23.4,29.10,SSW,200,4.0,11.0,85,0.00, +RA BR, +RA,-99.99,VWS V12.06,2013-02-18 05:05:00,
2013-02-17 23:10:00,27.3,23.4,29.09,SSW,200,7.0,11.0,85,0.00, +RA BR, +RA,-99.99,VWS V12.06,2013-02-18 05:10:00,
2013-02-17 23:15:00,27.2,23.6,29.09,SSW,200,5.0,11.0,86,0.00, +RA BR, +RA,-99.99,VWS V12.06,2013-02-18 05:15:00,
2013-02-17 23:20:00,27.2,23.6,29.09,SSW,200,7.0,11.0,86,0.00, +RA BR, +RA,-99.99,VWS V12.06,2013-02-18 05:20:00,
2013-02-17 23:25:00,27.2,23.3,29.08,South,191,8.0,13.0,85,0.00, +RA BR, +RA,-99.99,VWS V12.06,2013-02-18 05:25:00,
2013-02-17 23:30:00,27.2,23.6,29.09,South,191,7.0,13.0,86,0.00, +RA BR, +RA,-99.99,VWS V12.06,2013-02-18 05:30:00,
2013-02-17 23:35:00,27.3,23.4,29.09,South,191,2.0,9.0,85,0.00, +RA BR, +RA,-99.99,VWS V12.06,2013-02-18 05:35:00,
2013-02-17 23:40:00,27.3,23.7,29.09,South,190,5.0,11.0,86,0.00, +RA BR, +RA,-99.99,VWS V12.06,2013-02-18 05:40:00,
2013-02-17 23:45:00,27.3,23.4,29.08,South,190,9.0,11.0,85,0.00, +RA BR, +RA,-99.99,VWS V12.06,2013-02-18 05:45:00,
2013-02-17 23:50:00,27.2,23.3,29.08,South,190,9.0,11.0,85,0.00, +RA BR, +RA,-99.99,VWS V12.06,2013-02-18 05:50:00,
2013-02-17 23:55:00,27.2,23.3,29.07,South,189,4.0,11.0,85,0.00, +RA BR, +RA,-99.99,VWS V12.06,2013-02-18 05:55:00,